METAR-berichten van nabijgelegen luchthavens

 

EHBK - Maastricht-Aachen Airport
Afstand tot station: WZW 9km
Bijgewerkt: 19-06-2018 23:55
Zwaar bewolkt
Zwaar bewolkt
 Wind vanuit varieert
Wind: varieert 4 km/h
Temperatuur: 18°C
Dauwpunt: 16°C
Vochtigheid: 88%
Luchtdruk: 1024 hPa
Bewolking: Zwaar bewolkt
Zicht: 10 km
Details bewolking: Meestal bewolkt 823 m
Zwaar bewolkt 945 m
2018/06/19 21:55 EHBK 192155Z AUTO VRB02KT 9999 BKN027 OVC031 18/16 Q1024
ETNG - NATO Air Base Geilenkirchen
Afstand tot station: ONO 11km
Bijgewerkt: 19-06-2018 23:50
Meestal bewolkt
Meestal bewolkt
 Wind vanuit ZW
Wind: ZW 6 km/h
Temperatuur: 19°C
Dauwpunt: 16°C
Vochtigheid: 83%
Luchtdruk: 1024 hPa
Bewolking: Meestal bewolkt
Zicht: 10 km
Details bewolking: Meestal bewolkt 975 m
2018/06/19 21:50 ETNG 192150Z 23003KT 9999 BKN032 19/16 Q1024